Time;durP1;ratioP1;P1;durP2;ratioP2;P2;SDS_P1;SDS_P2;PMS_P1;PMS_P2;Temp;Humidity;BMP_temperature;BMP_pressure;BME280_temperature;BME280_humidity;BME280_pressure;Samples;Min_cycle;Max_cycle;Signal;HPM_P1;HPM_P2
2021/12/25 00:01:54;;;;;;;2.38;2.25;;;18.60;64.60;;;;;;4977826;28;20030;-27
2021/12/25 00:04:19;;;;;;;3.65;2.17;;;18.60;64.60;;;;;;4978264;28;20101;-30
2021/12/25 00:06:45;;;;;;;2.80;2.40;;;18.60;64.50;;;;;;4978731;28;20046;-26
2021/12/25 00:09:11;;;;;;;2.58;2.38;;;18.60;64.70;;;;;;4978557;28;20038;-26
2021/12/25 00:11:36;;;;;;;2.17;2.00;;;18.60;65.40;;;;;;4978420;28;20027;-27
2021/12/25 00:14:09;;;;;;;2.00;1.90;;;18.60;64.60;;;;;;4978704;28;20030;-29
2021/12/25 00:16:35;;;;;;;2.17;2.08;;;18.60;64.60;;;;;;4960637;28;20027;-27
2021/12/25 00:19:01;;;;;;;2.10;2.00;;;18.60;64.70;;;;;;4978175;28;20026;-27
2021/12/25 00:21:26;;;;;;;2.10;2.00;;;18.60;64.70;;;;;;4977719;28;20034;-29
2021/12/25 00:23:52;;;;;;;2.20;2.10;;;18.60;64.80;;;;;;4978000;28;20097;-30
2021/12/25 00:26:36;;;;;;;3.78;2.60;;;18.60;64.70;;;;;;4978043;28;20042;-26
2021/12/25 00:29:16;;;;;;;3.30;2.58;;;18.60;64.70;;;;;;4968825;28;20078;-27
2021/12/25 00:31:49;;;;;;;2.42;2.33;;;18.60;64.80;;;;;;4977338;28;20419;-25
2021/12/25 00:34:15;;;;;;;2.67;2.47;;;18.50;64.60;;;;;;4977123;28;20609;-27
2021/12/25 00:36:41;;;;;;;2.10;2.00;;;18.60;64.70;;;;;;4961191;28;20103;-26
2021/12/25 00:39:07;;;;;;;2.63;2.13;;;18.50;64.70;;;;;;4977296;28;20019;-31
2021/12/25 00:41:32;;;;;;;2.58;1.80;;;18.50;64.80;;;;;;4976626;28;20019;-26
2021/12/25 00:43:58;;;;;;;1.90;1.75;;;18.50;64.70;;;;;;4977046;28;20027;-28
2021/12/25 00:46:23;;;;;;;1.85;1.75;;;18.50;64.70;;;;;;4978191;28;20029;-30
2021/12/25 00:48:49;;;;;;;1.75;1.65;;;18.50;64.80;;;;;;4977818;28;20022;-27
2021/12/25 00:51:15;;;;;;;1.70;1.60;;;18.50;64.80;;;;;;4977787;28;20054;-27
2021/12/25 00:53:41;;;;;;;1.88;1.77;;;18.50;64.90;;;;;;4978103;28;20086;-28
2021/12/25 00:56:06;;;;;;;1.90;1.80;;;18.40;65.00;;;;;;4978250;28;20027;-30
2021/12/25 00:58:32;;;;;;;2.28;2.17;;;18.40;64.90;;;;;;4978296;28;20115;-29
2021/12/25 01:00:57;;;;;;;2.13;2.03;;;18.40;64.80;;;;;;4977925;28;20109;-23
2021/12/25 01:03:23;;;;;;;1.85;1.75;;;18.40;64.90;;;;;;4977015;28;20023;-29
2021/12/25 01:05:49;;;;;;;1.80;1.70;;;18.40;65.00;;;;;;4959942;28;20038;-26
2021/12/25 01:08:15;;;;;;;2.10;2.00;;;18.40;65.00;;;;;;4977705;28;20451;-28
2021/12/25 01:10:41;;;;;;;1.88;1.77;;;18.40;64.90;;;;;;4977662;28;20027;-29
2021/12/25 01:13:24;;;;;;;1.92;1.75;;;18.40;65.00;;;;;;4977472;28;20030;-26
2021/12/25 01:16:13;;;;;;;1.67;1.55;;;18.50;64.90;;;;;;4977002;28;20054;-28
2021/12/25 01:19:27;;;;;;;1.90;1.80;;;18.50;64.90;;;;;;4977264;28;20099;-31
2021/12/25 01:40:09;;;;;;;1.50;1.40;;;18.60;64.30;;;;;;4981790;28;20159;-29
2021/12/25 01:48:20;;;;;;;1.63;1.52;;;18.50;64.40;;;;;;4964558;28;20062;-24
2021/12/25 01:50:45;;;;;;;1.70;1.60;;;18.50;64.40;;;;;;4962924;28;20078;-31
2021/12/25 01:53:11;;;;;;;1.65;1.55;;;18.50;64.20;;;;;;4981253;28;20035;-28
2021/12/25 01:55:37;;;;;;;1.70;1.60;;;18.50;65.00;;;;;;4981487;28;20500;-27
2021/12/25 01:58:03;;;;;;;1.58;1.27;;;18.50;64.40;;;;;;4981405;28;20079;-28
2021/12/25 02:00:35;;;;;;;1.48;1.38;;;18.50;64.20;;;;;;4980965;28;20042;-24
2021/12/25 02:03:02;;;;;;;1.33;1.23;;;18.50;64.30;;;;;;4981372;28;20562;-24
2021/12/25 02:05:28;;;;;;;1.50;1.35;;;18.40;64.30;;;;;;4980772;28;20034;-29
2021/12/25 02:07:53;;;;;;;1.48;1.38;;;18.40;64.30;;;;;;4979943;28;20031;-26
2021/12/25 02:10:19;;;;;;;1.60;1.33;;;18.40;64.30;;;;;;4981016;28;20113;-28
2021/12/25 02:12:45;;;;;;;1.33;1.30;;;18.40;64.30;;;;;;4981045;28;20038;-32
2021/12/25 02:15:15;;;;;;;1.20;1.20;;;18.40;64.20;;;;;;4981158;28;20035;-32
2021/12/25 02:20:26;;;;;;;1.50;1.40;;;18.30;64.40;;;;;;4980692;28;20375;-23
2021/12/25 02:22:59;;;;;;;1.55;1.45;;;18.30;64.30;;;;;;4980953;28;20098;-28
2021/12/25 02:25:25;;;;;;;1.38;1.27;;;18.40;64.20;;;;;;4979702;28;20030;-28
2021/12/25 02:27:50;;;;;;;1.33;1.23;;;18.40;64.20;;;;;;4979251;28;20023;-28
2021/12/25 02:30:16;;;;;;;1.60;1.40;;;18.40;64.10;;;;;;4976325;28;20027;-30
2021/12/25 02:32:45;;;;;;;1.50;1.40;;;18.40;64.10;;;;;;4978387;28;20031;-25
2021/12/25 02:35:11;;;;;;;1.33;1.23;;;18.40;64.20;;;;;;4979046;28;20125;-26
2021/12/25 02:37:39;;;;;;;1.30;1.20;;;18.40;64.10;;;;;;4978574;28;20023;-28
2021/12/25 02:40:06;;;;;;;0.90;0.90;;;18.30;64.10;;;;;;4975786;28;20031;-28
2021/12/25 02:42:34;;;;;;;1.40;1.15;;;18.40;64.20;;;;;;4978775;28;20092;-31
2021/12/25 02:45:00;;;;;;;1.10;1.10;;;18.40;64.10;;;;;;4976744;28;20031;-30
2021/12/25 02:47:29;;;;;;;1.00;1.00;;;18.40;64.00;;;;;;4978052;28;20110;-31
2021/12/25 02:49:54;;;;;;;1.52;0.98;;;18.40;63.80;;;;;;4975855;28;20463;-29
2021/12/25 02:52:20;;;;;;;1.45;1.35;;;18.40;63.80;;;;;;4978889;28;20019;-25
2021/12/25 02:54:46;;;;;;;1.20;1.10;;;18.40;63.80;;;;;;4975885;28;20045;-27
2021/12/25 02:57:11;;;;;;;1.00;0.98;;;18.40;63.80;;;;;;4970071;28;20122;-27
2021/12/25 02:59:37;;;;;;;0.93;0.82;;;18.40;63.80;;;;;;4978140;28;20062;-32
2021/12/25 03:02:29;;;;;;;1.10;0.90;;;18.40;63.80;;;;;;4978921;28;20030;-29
2021/12/25 03:04:55;;;;;;;1.58;0.82;;;18.40;63.80;;;;;;4975003;28;20605;-32
2021/12/25 03:07:20;;;;;;;1.13;1.13;;;18.40;63.70;;;;;;4978630;28;20015;-29
2021/12/25 03:09:46;;;;;;;1.60;1.30;;;18.30;63.90;;;;;;4978407;28;20030;-27
2021/12/25 03:12:14;;;;;;;1.10;1.10;;;18.30;63.80;;;;;;4975288;28;20019;-27
2021/12/25 03:15:08;;;;;;;0.70;0.70;;;18.30;63.90;;;;;;4977171;28;20026;-27
2021/12/25 03:17:29;;;;;;;1.20;1.17;;;18.30;63.80;;;;;;4977238;28;20551;-28
2021/12/25 03:19:55;;;;;;;0.80;0.80;;;18.40;63.70;;;;;;4977516;28;20027;-29
2021/12/25 03:22:21;;;;;;;1.17;1.08;;;18.30;63.80;;;;;;4978367;28;20037;-23
2021/12/25 03:24:47;;;;;;;1.50;1.30;;;18.30;63.90;;;;;;4969686;28;20022;-26
2021/12/25 03:27:12;;;;;;;1.20;1.20;;;18.20;64.00;;;;;;4978540;28;20026;-29
2021/12/25 03:29:40;;;;;;;1.77;1.35;;;18.30;64.10;;;;;;4968907;28;20030;-25
2021/12/25 03:32:07;;;;;;;1.55;1.25;;;18.30;64.20;;;;;;4969392;28;20027;-26
2021/12/25 03:34:32;;;;;;;1.25;1.15;;;18.30;64.30;;;;;;4977474;28;20043;-29
2021/12/25 03:36:58;;;;;;;1.25;1.15;;;18.20;64.30;;;;;;4978143;28;20391;-28
2021/12/25 03:39:24;;;;;;;1.48;1.30;;;18.20;64.30;;;;;;4978229;28;20400;-32
2021/12/25 03:41:49;;;;;;;1.40;1.30;;;18.20;64.30;;;;;;4977593;28;20031;-29
2021/12/25 03:44:15;;;;;;;1.10;1.00;;;18.20;64.30;;;;;;4977682;28;20057;-25
2021/12/25 03:46:41;;;;;;;1.55;1.30;;;18.20;64.30;;;;;;4968260;28;20051;-28
2021/12/25 03:49:14;;;;;;;1.38;1.17;;;18.20;64.40;;;;;;4969275;28;20058;-32
2021/12/25 04:00:02;;;;;;;1.30;1.20;;;18.20;64.40;;;;;;4976227;28;20108;-24
2021/12/25 04:02:34;;;;;;;2.28;1.30;;;18.20;64.50;;;;;;4977553;28;20030;-34
2021/12/25 04:05:02;;;;;;;1.17;1.05;;;18.20;64.50;;;;;;4967018;28;20110;-26
2021/12/25 04:10:01;;;;;;;1.10;1.10;;;18.20;64.40;;;;;;4977602;28;20659;-31
2021/12/25 04:12:26;;;;;;;1.10;1.00;;;18.20;64.50;;;;;;4977778;28;20097;-26
2021/12/25 04:14:52;;;;;;;1.10;1.10;;;18.20;64.40;;;;;;4978143;28;20026;-26
2021/12/25 04:17:18;;;;;;;1.65;1.00;;;18.20;64.40;;;;;;4978672;28;20023;-31
2021/12/25 04:19:43;;;;;;;1.60;1.30;;;18.20;64.30;;;;;;4978740;28;20023;-27
2021/12/25 04:22:19;;;;;;;1.48;1.08;;;18.20;64.30;;;;;;4977672;28;20023;-29
2021/12/25 04:24:46;;;;;;;1.13;1.00;;;18.20;64.50;;;;;;4976014;28;20055;-28
2021/12/25 04:27:15;;;;;;;0.65;0.65;;;18.20;64.60;;;;;;4958757;28;20030;-24
2021/12/25 04:29:49;;;;;;;0.90;0.90;;;18.20;64.60;;;;;;4959389;28;20400;-24
2021/12/25 04:32:54;;;;;;;1.25;1.15;;;18.20;64.60;;;;;;4959194;28;20349;-29
2021/12/25 05:02:57;;;;;;;1.10;1.00;;;18.10;64.90;;;;;;4968845;28;20381;-26
2021/12/25 05:05:23;;;;;;;0.80;0.80;;;18.10;64.80;;;;;;4977897;28;20030;-28
2021/12/25 05:07:49;;;;;;;1.40;1.05;;;18.10;64.80;;;;;;4977293;28;20027;-28
2021/12/25 05:10:14;;;;;;;0.73;0.70;;;18.10;64.90;;;;;;4977725;28;20085;-28
2021/12/25 05:12:40;;;;;;;1.63;0.88;;;18.10;64.90;;;;;;4977923;28;20023;-23
2021/12/25 05:15:06;;;;;;;0.95;0.90;;;18.10;64.70;;;;;;4977632;28;20492;-26
2021/12/25 05:17:32;;;;;;;1.17;0.82;;;18.00;64.80;;;;;;4976995;28;20033;-29
2021/12/25 05:19:59;;;;;;;1.77;1.20;;;18.00;64.80;;;;;;4977439;28;20019;-26
2021/12/25 05:22:25;;;;;;;1.10;0.80;;;18.00;64.90;;;;;;4977950;28;20501;-23
2021/12/25 05:24:51;;;;;;;0.75;0.70;;;18.00;64.90;;;;;;4977604;28;20019;-32
2021/12/25 05:27:17;;;;;;;1.10;1.00;;;18.00;65.00;;;;;;4977909;28;20029;-30
2021/12/25 05:29:46;;;;;;;1.00;0.90;;;18.00;64.80;;;;;;4976933;28;20027;-25
2021/12/25 05:32:13;;;;;;;0.98;0.88;;;18.10;65.70;;;;;;4958446;28;20054;-26
2021/12/25 05:34:39;;;;;;;0.90;0.90;;;18.00;64.90;;;;;;4958410;28;20019;-28
2021/12/25 05:37:05;;;;;;;0.80;0.80;;;18.00;64.80;;;;;;4958524;28;20055;-26
2021/12/25 05:39:30;;;;;;;1.08;0.90;;;18.00;64.90;;;;;;4968615;28;20027;-26
2021/12/25 05:41:57;;;;;;;0.70;0.70;;;18.00;64.90;;;;;;4977087;28;20039;-28
2021/12/25 05:44:22;;;;;;;0.95;0.80;;;18.00;64.90;;;;;;4977200;28;20447;-28
2021/12/25 05:46:48;;;;;;;1.02;1.02;;;18.00;64.90;;;;;;4977656;28;20030;-30
2021/12/25 05:49:14;;;;;;;0.95;0.95;;;18.00;64.90;;;;;;4977637;28;20102;-29
2021/12/25 05:51:40;;;;;;;0.70;0.70;;;18.00;64.90;;;;;;4976844;28;20054;-26
2021/12/25 05:54:05;;;;;;;1.05;1.00;;;18.00;64.90;;;;;;4976970;28;20097;-29
2021/12/25 05:56:31;;;;;;;0.80;0.80;;;18.00;64.80;;;;;;4977120;28;20062;-32
2021/12/25 05:58:56;;;;;;;1.00;0.90;;;18.00;64.80;;;;;;4977455;28;20023;-29
2021/12/25 06:01:22;;;;;;;1.15;0.88;;;18.00;65.00;;;;;;4976613;28;20023;-27
2021/12/25 06:03:48;;;;;;;1.00;0.88;;;18.00;64.90;;;;;;4976873;28;20034;-24
2021/12/25 06:06:13;;;;;;;0.68;0.68;;;18.00;64.80;;;;;;4976834;28;20039;-27
2021/12/25 06:08:39;;;;;;;0.90;0.90;;;18.00;64.90;;;;;;4977380;28;20027;-31
2021/12/25 06:11:05;;;;;;;0.70;0.70;;;18.00;64.80;;;;;;4976477;28;20101;-25
2021/12/25 06:13:31;;;;;;;1.02;0.90;;;18.00;64.90;;;;;;4975723;28;20062;-28
2021/12/25 06:15:56;;;;;;;0.93;0.93;;;18.00;64.80;;;;;;4977104;28;20026;-28
2021/12/25 06:18:22;;;;;;;1.15;0.80;;;18.00;64.80;;;;;;4977739;28;20034;-25
2021/12/25 06:20:48;;;;;;;0.95;0.73;;;18.00;64.80;;;;;;4980847;28;20026;-30
2021/12/25 06:23:13;;;;;;;0.70;0.70;;;18.00;64.70;;;;;;4980458;28;20097;-30
2021/12/25 06:25:39;;;;;;;0.90;0.90;;;18.00;64.70;;;;;;4971674;28;20054;-28
2021/12/25 06:28:05;;;;;;;0.90;0.90;;;18.10;65.40;;;;;;4963764;28;20063;-29
2021/12/25 06:30:30;;;;;;;0.80;0.80;;;18.10;64.60;;;;;;4979832;28;20066;-31
2021/12/25 06:32:56;;;;;;;1.00;0.90;;;18.10;64.60;;;;;;4980738;28;20019;-28
2021/12/25 06:35:21;;;;;;;0.60;0.60;;;18.00;64.60;;;;;;4980544;28;20031;-27
2021/12/25 06:37:47;;;;;;;0.75;0.75;;;18.00;64.60;;;;;;4980737;28;20074;-31
2021/12/25 06:40:17;;;;;;;0.90;0.90;;;18.00;64.60;;;;;;4980513;28;20063;-27
2021/12/25 06:42:43;;;;;;;0.70;0.70;;;18.00;64.60;;;;;;4979579;28;20030;-31
2021/12/25 06:45:09;;;;;;;0.70;0.70;;;18.00;64.60;;;;;;4980407;28;20046;-29
2021/12/25 06:47:34;;;;;;;0.80;0.80;;;18.00;64.60;;;;;;4980848;28;20026;-24
2021/12/25 06:50:00;;;;;;;1.08;0.80;;;18.00;64.50;;;;;;4980187;28;20496;-28
2021/12/25 06:52:26;;;;;;;0.70;0.70;;;18.00;64.60;;;;;;4980349;28;20031;-28
2021/12/25 06:54:51;;;;;;;0.80;0.80;;;18.00;64.50;;;;;;4980091;28;20038;-24
2021/12/25 06:57:18;;;;;;;0.60;0.60;;;18.10;64.50;;;;;;4979334;28;20519;-31
2021/12/25 06:59:43;;;;;;;0.77;0.77;;;18.10;64.50;;;;;;4979411;28;20027;-25
2021/12/25 07:02:09;;;;;;;0.60;0.60;;;18.00;64.40;;;;;;4979241;28;20042;-25
2021/12/25 07:04:35;;;;;;;0.50;0.50;;;18.00;64.30;;;;;;4979984;28;20027;-30
2021/12/25 07:07:00;;;;;;;0.98;0.60;;;18.00;64.40;;;;;;4980173;28;20031;-32
2021/12/25 07:09:26;;;;;;;0.75;0.60;;;18.00;64.30;;;;;;4980210;28;20123;-29
2021/12/25 07:11:52;;;;;;;0.50;0.50;;;18.00;64.40;;;;;;4969810;28;20058;-26
2021/12/25 07:14:17;;;;;;;0.63;0.50;;;18.00;64.40;;;;;;4978085;28;20110;-34
2021/12/25 07:16:43;;;;;;;0.60;0.60;;;18.00;64.40;;;;;;4978164;28;20077;-33
2021/12/25 07:19:12;;;;;;;0.40;0.40;;;18.00;64.40;;;;;;4977535;28;20113;-24
2021/12/25 07:21:38;;;;;;;0.65;0.60;;;18.00;64.40;;;;;;4967047;28;20035;-27
2021/12/25 07:24:04;;;;;;;0.57;0.50;;;18.00;64.50;;;;;;4973662;28;20035;-28
2021/12/25 07:26:30;;;;;;;0.77;0.50;;;18.00;64.40;;;;;;4971137;28;20061;-28
2021/12/25 07:28:56;;;;;;;0.60;0.60;;;18.10;64.50;;;;;;4971641;28;20068;-30
2021/12/25 07:31:21;;;;;;;0.68;0.68;;;18.00;64.60;;;;;;4976730;28;20023;-30
2021/12/25 07:33:47;;;;;;;0.75;0.70;;;17.90;64.80;;;;;;4977557;28;20056;-23
2021/12/25 07:36:13;;;;;;;0.70;0.70;;;18.00;65.20;;;;;;4979261;28;20077;-23
2021/12/25 07:38:38;;;;;;;1.33;0.60;;;18.00;65.30;;;;;;4977785;28;20027;-26
2021/12/25 07:41:04;;;;;;;0.50;0.50;;;18.10;65.60;;;;;;4977774;28;20110;-27
2021/12/25 07:43:30;;;;;;;0.70;0.70;;;18.00;65.10;;;;;;4978365;28;20031;-26
2021/12/25 07:45:55;;;;;;;0.57;0.50;;;18.00;65.10;;;;;;4977168;28;20110;-28
2021/12/25 07:48:24;;;;;;;1.08;0.60;;;18.00;65.30;;;;;;4978759;28;20031;-27
2021/12/25 07:50:50;;;;;;;1.42;0.68;;;18.00;65.40;;;;;;4978588;28;20057;-26
2021/12/25 07:53:18;;;;;;;0.98;0.82;;;18.10;65.50;;;;;;4979135;28;20031;-30
2021/12/25 07:55:47;;;;;;;1.20;0.63;;;18.00;65.80;;;;;;4979910;28;20547;-31
2021/12/25 07:58:13;;;;;;;3.97;0.77;;;18.00;65.80;;;;;;4979133;28;20027;-29
2021/12/25 08:00:39;;;;;;;4.68;1.00;;;18.00;65.80;;;;;;4978761;28;20034;-28
2021/12/25 08:03:04;;;;;;;8.50;1.85;;;18.00;66.50;;;;;;4978785;28;20510;-28
2021/12/25 08:05:30;;;;;;;13.55;2.95;;;18.00;66.80;;;;;;4978467;28;20117;-25
2021/12/25 08:07:55;;;;;;;12.73;3.95;;;18.10;67.20;;;;;;4978176;28;20033;-32
2021/12/25 08:10:21;;;;;;;9.45;2.80;;;18.20;67.50;;;;;;4978112;28;20419;-23
2021/12/25 08:12:55;;;;;;;11.52;3.17;;;18.10;67.20;;;;;;4977020;28;20043;-27
2021/12/25 08:15:23;;;;;;;7.20;2.40;;;18.10;67.20;;;;;;4977643;28;20118;-27
2021/12/25 08:17:48;;;;;;;7.25;2.55;;;18.10;67.70;;;;;;4976539;28;20074;-25
2021/12/25 08:20:14;;;;;;;5.80;2.45;;;18.00;68.10;;;;;;4977448;28;20121;-27
2021/12/25 08:22:40;;;;;;;14.15;3.10;;;18.00;67.60;;;;;;4976939;28;20201;-27
2021/12/25 08:25:06;;;;;;;7.95;3.08;;;18.10;67.30;;;;;;4977366;28;20097;-26
2021/12/25 08:27:31;;;;;;;8.50;3.00;;;18.10;67.30;;;;;;4613354;28;10000269;-25
2021/12/25 08:29:57;;;;;;;6.68;2.50;;;18.10;67.40;;;;;;4975036;28;20069;-26
2021/12/25 08:32:23;;;;;;;5.65;2.85;;;18.10;67.50;;;;;;4968242;28;20051;-25
2021/12/25 08:34:49;;;;;;;10.93;4.78;;;18.10;67.70;;;;;;4971012;28;20046;-27
2021/12/25 08:37:14;;;;;;;7.78;4.65;;;18.00;67.90;;;;;;4973796;28;20073;-31
2021/12/25 08:39:40;;;;;;;6.78;3.95;;;18.00;68.10;;;;;;4973721;28;20037;-27
2021/12/25 08:42:06;;;;;;;6.68;3.28;;;18.00;68.10;;;;;;4972865;28;20054;-29
2021/12/25 08:44:52;;;;;;;4.50;2.47;;;18.00;68.00;;;;;;4980354;28;20046;-30
2021/12/25 08:47:18;;;;;;;6.82;2.90;;;18.00;68.00;;;;;;4976187;28;20465;-29
2021/12/25 08:49:44;;;;;;;7.22;4.10;;;18.00;68.10;;;;;;4972320;28;20050;-23
2021/12/25 08:52:13;;;;;;;7.18;3.90;;;18.00;68.00;;;;;;4973162;28;20104;-31
2021/12/25 08:54:39;;;;;;;6.10;3.65;;;18.00;68.10;;;;;;4973021;28;20074;-26
2021/12/25 08:57:05;;;;;;;6.75;3.42;;;18.00;68.00;;;;;;4972512;28;20055;-30
2021/12/25 08:59:33;;;;;;;5.10;2.83;;;18.00;67.90;;;;;;4973005;28;20129;-29
2021/12/25 09:01:58;;;;;;;8.23;3.40;;;18.00;67.80;;;;;;4972356;28;20054;-29
2021/12/25 09:04:24;;;;;;;4.85;3.20;;;18.00;67.60;;;;;;4972698;28;20824;-29
2021/12/25 09:06:50;;;;;;;4.82;3.25;;;18.00;67.70;;;;;;4973010;28;20043;-27
2021/12/25 09:09:15;;;;;;;7.68;2.85;;;18.00;67.80;;;;;;4972924;28;20082;-29
2021/12/25 09:11:41;;;;;;;4.40;3.08;;;18.00;67.60;;;;;;4973178;28;20048;-28
2021/12/25 09:14:06;;;;;;;5.63;2.88;;;18.00;67.70;;;;;;4972238;28;20042;-28
2021/12/25 09:16:32;;;;;;;4.15;3.13;;;18.00;67.70;;;;;;4973102;28;20102;-29
2021/12/25 09:18:58;;;;;;;3.13;2.67;;;18.00;67.70;;;;;;4972469;28;20673;-29
2021/12/25 09:21:24;;;;;;;4.05;3.65;;;18.00;67.50;;;;;;4972822;28;20054;-32
2021/12/25 09:23:50;;;;;;;6.43;3.55;;;18.10;67.50;;;;;;4971006;28;20464;-30
2021/12/25 09:26:17;;;;;;;4.95;3.55;;;18.20;66.70;;;;;;4972647;28;20085;-25
2021/12/25 09:28:43;;;;;;;6.78;3.15;;;18.20;66.80;;;;;;4972088;28;20161;-27
2021/12/25 09:31:09;;;;;;;6.93;3.38;;;18.20;66.40;;;;;;4971749;28;20563;-26
2021/12/25 09:33:34;;;;;;;4.72;3.10;;;18.20;66.70;;;;;;4972450;28;20050;-31
2021/12/25 09:36:02;;;;;;;4.93;3.17;;;18.10;66.70;;;;;;4971486;28;20111;-24
2021/12/25 09:38:29;;;;;;;3.60;3.25;;;18.10;66.80;;;;;;4972978;28;20062;-29
2021/12/25 09:40:55;;;;;;;3.53;3.15;;;18.10;67.60;;;;;;4972125;28;20055;-27
2021/12/25 09:43:21;;;;;;;3.50;2.55;;;18.10;67.00;;;;;;4972974;28;20151;-27
2021/12/25 09:45:47;;;;;;;4.20;3.55;;;18.10;66.90;;;;;;4971618;28;20090;-26
2021/12/25 09:48:12;;;;;;;8.75;3.53;;;18.10;66.90;;;;;;4971829;28;20872;-25
2021/12/25 09:50:38;;;;;;;7.47;4.88;;;18.10;66.90;;;;;;4972462;28;20054;-26
2021/12/25 09:53:07;;;;;;;7.10;4.55;;;18.20;66.90;;;;;;4981321;28;20046;-27
2021/12/25 09:55:33;;;;;;;8.98;5.28;;;18.20;66.60;;;;;;4980511;28;20102;-31
2021/12/25 09:57:58;;;;;;;8.07;5.63;;;18.20;66.70;;;;;;4976028;28;20078;-24
2021/12/25 10:00:24;;;;;;;7.28;5.80;;;18.10;66.90;;;;;;4976863;28;20586;-29
2021/12/25 10:02:52;;;;;;;8.05;5.63;;;18.10;67.20;;;;;;4985174;28;20130;-29
2021/12/25 10:05:29;;;;;;;8.27;5.57;;;18.10;67.10;;;;;;4979670;28;20054;-24
2021/12/25 10:08:00;;;;;;;8.68;5.70;;;18.10;66.90;;;;;;4983396;28;20039;-26
2021/12/25 10:10:35;;;;;;;8.20;5.38;;;18.20;67.00;;;;;;4975842;28;20070;-27
2021/12/25 10:13:01;;;;;;;8.13;5.57;;;18.10;66.90;;;;;;4974241;28;20050;-27
2021/12/25 10:15:28;;;;;;;6.93;5.80;;;18.10;67.00;;;;;;4976205;28;20043;-26
2021/12/25 10:17:55;;;;;;;8.82;5.47;;;18.20;67.00;;;;;;4975687;28;20066;-27
2021/12/25 10:20:22;;;;;;;8.45;6.50;;;18.20;66.90;;;;;;4976371;28;20051;-30
2021/12/25 10:23:00;;;;;;;7.97;5.65;;;18.20;67.20;;;;;;4964054;28;20114;-25
2021/12/25 10:25:38;;;;;;;7.20;5.68;;;18.30;67.10;;;;;;4977614;28;20896;-28
2021/12/25 10:28:08;;;;;;;6.32;4.88;;;18.30;67.20;;;;;;4964036;28;20761;-25
2021/12/25 10:30:44;;;;;;;7.20;5.20;;;18.30;66.70;;;;;;4963473;28;20137;-29
2021/12/25 10:33:38;;;;;;;7.47;5.35;;;18.40;66.90;;;;;;4961958;28;20075;-28
2021/12/25 10:36:08;;;;;;;5.88;5.10;;;18.40;67.00;;;;;;4962243;28;20173;-27
2021/12/25 10:38:34;;;;;;;6.65;5.63;;;18.40;67.00;;;;;;4962026;28;20049;-30
2021/12/25 10:41:18;;;;;;;7.70;5.32;;;18.40;67.10;;;;;;4962060;28;20055;-27
2021/12/25 10:43:43;;;;;;;7.03;4.80;;;18.30;67.10;;;;;;4961447;28;20672;-27
2021/12/25 10:46:09;;;;;;;7.13;5.18;;;18.40;67.10;;;;;;4961686;28;20107;-24
2021/12/25 10:48:35;;;;;;;6.07;5.15;;;18.40;67.30;;;;;;4961943;28;20058;-31
2021/12/25 10:51:00;;;;;;;8.23;4.97;;;18.40;66.80;;;;;;4962277;28;20065;-28
2021/12/25 10:53:34;;;;;;;5.85;4.80;;;18.40;66.50;;;;;;4963150;28;20055;-26
2021/12/25 10:56:12;;;;;;;6.03;4.80;;;18.40;66.50;;;;;;4962003;28;20064;-31
2021/12/25 10:58:38;;;;;;;5.55;4.70;;;18.40;66.30;;;;;;4961481;28;20058;-31
2021/12/25 11:01:05;;;;;;;5.97;4.75;;;18.50;66.30;;;;;;4960495;28;20055;-27
2021/12/25 11:03:33;;;;;;;8.05;4.90;;;18.50;66.20;;;;;;4962614;28;20046;-31
2021/12/25 11:06:05;;;;;;;6.43;4.95;;;18.50;66.10;;;;;;4960783;28;20047;-28
2021/12/25 11:08:31;;;;;;;5.32;4.40;;;18.50;65.90;;;;;;4961384;28;20081;-26
2021/12/25 11:11:10;;;;;;;4.50;4.20;;;18.50;66.00;;;;;;4961958;28;20492;-28
2021/12/25 11:13:41;;;;;;;7.10;4.85;;;18.50;65.80;;;;;;4962218;28;20101;-30
2021/12/25 11:16:08;;;;;;;5.60;4.47;;;18.60;66.00;;;;;;4962105;28;20051;-30
2021/12/25 11:19:28;;;;;;;5.00;4.60;;;18.60;66.00;;;;;;4961088;28;20051;-26
2021/12/25 11:21:58;;;;;;;5.47;4.65;;;18.60;65.80;;;;;;4960921;28;20047;-30
2021/12/25 11:24:27;;;;;;;6.15;5.13;;;18.60;66.10;;;;;;4962635;28;20539;-26
2021/12/25 11:26:54;;;;;;;4.75;4.35;;;18.60;66.10;;;;;;4960526;28;20159;-26
2021/12/25 11:29:22;;;;;;;4.18;3.80;;;18.50;66.10;;;;;;4962124;28;20065;-30
2021/12/25 11:31:48;;;;;;;13.70;8.60;;;18.60;65.90;;;;;;4961950;28;20065;-29
2021/12/25 11:34:14;;;;;;;10.15;8.25;;;18.60;65.80;;;;;;4961324;28;20113;-30
2021/12/25 11:36:42;;;;;;;10.85;7.47;;;18.60;65.70;;;;;;4960896;28;20078;-30
2021/12/25 11:39:07;;;;;;;11.70;8.68;;;18.60;65.60;;;;;;4961613;28;20094;-30
2021/12/25 11:41:34;;;;;;;10.55;8.65;;;18.70;65.70;;;;;;4961935;28;20420;-31
2021/12/25 11:44:04;;;;;;;12.43;9.05;;;18.70;65.60;;;;;;4958997;28;20061;-30
2021/12/25 11:46:37;;;;;;;11.55;9.07;;;18.70;65.30;;;;;;4960860;28;20054;-31
2021/12/25 11:49:08;;;;;;;10.65;9.07;;;18.70;65.50;;;;;;4961239;28;20062;-28
2021/12/25 11:51:34;;;;;;;12.38;9.40;;;18.70;65.40;;;;;;4961815;28;20058;-28
2021/12/25 11:57:10;;;;;;;13.27;9.50;;;18.70;65.40;;;;;;4960335;28;20411;-26
2021/12/25 11:59:17;;;;;;;11.80;8.90;;;18.70;65.70;;;;;;4960768;28;20047;-28
2021/12/25 12:01:51;;;;;;;12.38;9.95;;;18.70;65.50;;;;;;4961549;28;20054;-28
2021/12/25 12:04:18;;;;;;;11.55;8.93;;;18.70;65.40;;;;;;4960351;28;20050;-24
2021/12/25 12:06:44;;;;;;;11.38;9.02;;;18.70;65.30;;;;;;4958750;28;20141;-28
2021/12/25 12:09:19;;;;;;;11.00;9.10;;;18.70;65.50;;;;;;4959694;28;20043;-30
2021/12/25 12:11:49;;;;;;;10.13;8.68;;;18.70;65.20;;;;;;4960976;28;20159;-30
2021/12/25 12:14:23;;;;;;;11.85;9.98;;;18.80;65.10;;;;;;4959992;28;20055;-27
2021/12/25 12:16:51;;;;;;;13.27;9.20;;;18.70;65.00;;;;;;4958333;28;20590;-34
2021/12/25 12:19:36;;;;;;;10.88;8.93;;;18.80;65.00;;;;;;4959792;28;20051;-25
2021/12/25 12:22:15;;;;;;;13.05;10.05;;;18.70;65.00;;;;;;4959607;28;20051;-26
2021/12/25 12:27:38;;;;;;;;;;;18.70;66.20;;;;;;4972691;28;20057;-28
2021/12/25 12:30:11;;;;;;;11.18;8.80;;;18.60;65.70;;;;;;4970318;28;19914;-31
2021/12/25 12:32:44;;;;;;;12.38;9.48;;;18.60;65.60;;;;;;4972709;28;20918;-31
2021/12/25 12:35:28;;;;;;;13.27;9.43;;;18.70;65.30;;;;;;4971823;28;20050;-30
2021/12/25 12:37:54;;;;;;;11.23;9.45;;;18.70;65.30;;;;;;4971866;28;20567;-31
2021/12/25 12:40:22;;;;;;;11.85;9.50;;;18.70;65.30;;;;;;4972167;28;20042;-27
2021/12/25 12:42:50;;;;;;;9.30;8.30;;;18.60;65.40;;;;;;4970542;28;20157;-24
2021/12/25 12:45:34;;;;;;;9.63;8.48;;;18.60;65.40;;;;;;4971692;28;20415;-30
2021/12/25 12:48:19;;;;;;;9.57;8.55;;;18.70;65.50;;;;;;4959639;28;20142;-25
2021/12/25 12:50:58;;;;;;;9.30;7.97;;;18.60;65.60;;;;;;4972002;28;20055;-26
2021/12/25 12:53:25;;;;;;;8.82;7.93;;;18.60;65.50;;;;;;4971864;28;20062;-32
2021/12/25 12:55:52;;;;;;;10.70;8.02;;;18.60;65.60;;;;;;4970893;28;20109;-28
2021/12/25 12:58:26;;;;;;;8.73;7.60;;;18.60;65.50;;;;;;4971289;28;20049;-25
2021/12/25 13:00:55;;;;;;;10.40;8.55;;;18.60;65.40;;;;;;4971877;28;20069;-31
2021/12/25 13:03:22;;;;;;;14.07;8.25;;;18.60;65.50;;;;;;4971972;28;20043;-25
2021/12/25 13:05:53;;;;;;;10.77;7.88;;;18.60;65.50;;;;;;4972314;28;20093;-27
2021/12/25 13:08:29;;;;;;;8.35;7.38;;;18.60;65.80;;;;;;4971730;28;20054;-28
2021/12/25 13:11:06;;;;;;;9.40;6.53;;;18.60;65.70;;;;;;4971706;28;20054;-26
2021/12/25 13:13:39;;;;;;;8.02;7.22;;;18.60;65.50;;;;;;4971424;28;20046;-33
2021/12/25 13:16:10;;;;;;;7.53;6.78;;;18.60;65.80;;;;;;4970801;28;20487;-26
2021/12/25 13:18:37;;;;;;;8.55;7.65;;;18.60;65.70;;;;;;4959423;28;20062;-31
2021/12/25 13:21:08;;;;;;;8.48;7.47;;;18.50;65.80;;;;;;4982987;28;20046;-27
2021/12/25 13:23:42;;;;;;;8.98;7.20;;;18.50;65.90;;;;;;4971971;28;20050;-30
2021/12/25 13:26:09;;;;;;;;;;;18.50;65.90;;;;;;4969644;28;20047;-27
2021/12/25 13:28:36;;;;;;;7.30;6.60;;;18.50;66.00;;;;;;4970950;28;19926;-27
2021/12/25 13:31:13;;;;;;;6.72;5.90;;;18.50;66.00;;;;;;4970963;28;20054;-31
2021/12/25 13:33:47;;;;;;;6.85;6.15;;;18.50;65.80;;;;;;4971492;28;20058;-26
2021/12/25 13:36:17;;;;;;;6.45;5.82;;;18.50;65.80;;;;;;4970996;28;20050;-29
2021/12/25 13:38:57;;;;;;;6.60;5.50;;;18.50;65.90;;;;;;4971349;28;20078;-28
2021/12/25 13:41:40;;;;;;;7.47;6.07;;;18.50;65.90;;;;;;4971228;28;20050;-26
2021/12/25 13:44:07;;;;;;;6.10;5.60;;;18.50;65.90;;;;;;4971121;28;20050;-28
2021/12/25 13:46:47;;;;;;;6.22;5.70;;;18.50;65.90;;;;;;4971083;28;20828;-32
2021/12/25 13:49:28;;;;;;;6.50;5.90;;;18.50;65.90;;;;;;4971019;28;20066;-29
2021/12/25 13:51:54;;;;;;;6.53;5.93;;;18.50;65.90;;;;;;4970907;28;20689;-28
2021/12/25 13:54:20;;;;;;;7.35;6.65;;;18.50;65.90;;;;;;4971245;28;20149;-27
2021/12/25 13:56:49;;;;;;;7.40;6.70;;;18.50;65.90;;;;;;4971415;28;20101;-28
2021/12/25 13:59:15;;;;;;;8.85;7.35;;;18.50;65.80;;;;;;4958243;28;20073;-29
2021/12/25 14:01:40;;;;;;;9.32;6.82;;;18.50;65.90;;;;;;4971503;28;20047;-28
2021/12/25 14:04:08;;;;;;;6.90;6.20;;;18.50;65.80;;;;;;4971066;28;20042;-26